»·PEaware :: UAL210 KJAC-KDEN

UAL210 :: KJAC-KDEN

FLIGHT INFORMATION

Flight Status: Arrived
Operator:
United Airlines
More flights by this operator :: More flights under this callsign
Pilot: Andrew M. (139)
Aircraft: BOEING 737-800
(B738)
More flights by this aircraft type
Origin: KJAC Jackson Hole
United States
Destination: KDEN Denver Intl
United States
More flights between these airports :: More routes between these airports
Route: +ALPIN2 KICNE OCS GWEDO KAILE2
File this flight plan on PilotEdge
Remarks: PBN / A1B1C1D1S1S2 NAV / RNVD1E2A1 REG / N608BT EET / KZDV0028 RMK / SIMBRIEF
Altitude:
(Current/Filed)
35,000ft
Speed:
(Current/Filed)
429kts
Departed: 16-Jan-19 07:21 PM
Arrived: 16-Jan-19 08:17 PM
Distance/Time
Traveled:
352nm/0:56
Distance/Time
To Go:
Arrived

Flight Plot

Page will automatically refresh every two minutes.

Flight plan parsing failed; only flown route is shown


Map Options




Map Legend


Flown Route
Filed Route
Departure Airport
Arrival Airport
Navaid (VOR, NDB)
Fix

Horizontal Profiles

Position Reports

Time Latitude Longitude Heading Altitude Ground
Speed
16-Jan-19 18:50 43.603105 -110.737267 110 6427ft 0kts
16-Jan-19 18:51 43.603105 -110.737267 110 6427ft 0kts
16-Jan-19 18:52 43.603105 -110.737267 110 6427ft 0kts
16-Jan-19 18:53 43.603105 -110.737267 110 6427ft 0kts
16-Jan-19 18:54 43.603105 -110.737267 110 6427ft 0kts
16-Jan-19 18:55 43.603105 -110.737267 110 6427ft 0kts
16-Jan-19 18:56 43.603105 -110.737267 110 6427ft 0kts
16-Jan-19 18:57 43.603105 -110.737267 110 6427ft 0kts
16-Jan-19 18:58 43.603105 -110.737267 110 6427ft 0kts
16-Jan-19 18:59 43.603105 -110.737267 110 6427ft 0kts
16-Jan-19 19:00 43.603105 -110.737267 110 6427ft 0kts
16-Jan-19 19:01 43.603105 -110.737267 110 6427ft 0kts
16-Jan-19 19:02 43.603105 -110.737267 110 6427ft 0kts
16-Jan-19 19:03 43.603105 -110.737267 110 6427ft 0kts
16-Jan-19 19:04 43.603105 -110.737267 110 6427ft 0kts
16-Jan-19 19:05 43.603105 -110.737267 110 6427ft 0kts
16-Jan-19 19:06 43.603105 -110.737267 110 6427ft 0kts
16-Jan-19 19:07 43.603105 -110.737267 110 6426ft 0kts
16-Jan-19 19:08 43.603137 -110.737387 109 6426ft 2kts
16-Jan-19 19:09 43.603112 -110.738098 53 6425ft 2kts
16-Jan-19 19:10 43.602852 -110.738358 19 6424ft 0kts
16-Jan-19 19:11 43.602852 -110.738358 19 6424ft 0kts
16-Jan-19 19:12 43.602949 -110.738310 19 6424ft 2kts
16-Jan-19 19:13 43.605030 -110.737294 19 6428ft 11kts
16-Jan-19 19:14 43.607678 -110.736002 19 6435ft 8kts
16-Jan-19 19:15 43.610347 -110.734694 19 6439ft 9kts
16-Jan-19 19:16 43.613083 -110.733355 19 6444ft 10kts
16-Jan-19 19:17 43.614845 -110.732601 343 6448ft 0kts
16-Jan-19 19:18 43.614845 -110.732601 343 6448ft 0kts
16-Jan-19 19:19 43.615237 -110.733830 224 6447ft 5kts
16-Jan-19 19:20 43.599502 -110.741620 199 6417ft 158kts
16-Jan-19 19:21 43.555594 -110.768701 204 7467ft 188kts
16-Jan-19 19:22 43.498945 -110.805676 204 8330ft 263kts
16-Jan-19 19:23 43.429704 -110.850975 205 10328ft 286kts
16-Jan-19 19:24 43.359492 -110.896859 208 12043ft 313kts
16-Jan-19 19:25 43.279252 -110.948598 204 14456ft 327kts
16-Jan-19 19:26 43.186791 -110.938232 156 16451ft 363kts
16-Jan-19 19:27 43.106231 -110.847065 140 18518ft 384kts
16-Jan-19 19:28 43.025891 -110.746854 140 20466ft 397kts
16-Jan-19 19:29 42.943764 -110.641809 134 22239ft 412kts
16-Jan-19 19:30 42.867158 -110.521743 133 23828ft 426kts
16-Jan-19 19:31 42.788015 -110.397706 133 25189ft 441kts
16-Jan-19 19:32 42.706087 -110.269774 133 26672ft 460kts
16-Jan-19 19:33 42.620129 -110.136036 133 28144ft 478kts
16-Jan-19 19:34 42.530992 -109.998032 133 29480ft 497kts
16-Jan-19 19:35 42.438647 -109.855712 133 30964ft 510kts
16-Jan-19 19:36 42.344871 -109.711919 132 32814ft 508kts
16-Jan-19 19:38 42.251609 -109.569698 132 34576ft 502kts
16-Jan-19 19:39 42.158255 -109.428103 132 35154ft 509kts
16-Jan-19 19:40 42.064568 -109.286561 133 35147ft 506kts
16-Jan-19 19:41 41.971428 -109.146295 133 35167ft 508kts
16-Jan-19 19:42 41.877489 -109.005561 133 35164ft 505kts
16-Jan-19 19:43 41.783762 -108.865875 133 35163ft 502kts
16-Jan-19 19:44 41.690491 -108.727584 133 35166ft 501kts
16-Jan-19 19:45 41.597245 -108.590014 133 35167ft 500kts
16-Jan-19 19:46 41.503820 -108.452810 133 35170ft 499kts
16-Jan-19 19:47 41.411508 -108.317778 133 35173ft 512kts
16-Jan-19 19:48 41.321190 -108.167973 115 35199ft 520kts
16-Jan-19 19:49 41.258211 -107.995338 116 35212ft 520kts
16-Jan-19 19:50 41.191189 -107.825589 115 35215ft 518kts
16-Jan-19 19:51 41.126788 -107.663083 115 35218ft 518kts
16-Jan-19 19:52 41.059608 -107.494568 116 35221ft 517kts
16-Jan-19 19:53 40.992857 -107.328117 116 35214ft 517kts
16-Jan-19 19:54 40.925413 -107.160395 116 35215ft 516kts
16-Jan-19 19:55 40.860551 -107.000032 116 35202ft 515kts
16-Jan-19 19:56 40.792958 -106.833866 116 35167ft 513kts
16-Jan-19 19:57 40.725330 -106.668645 116 35178ft 513kts
16-Jan-19 19:58 40.657505 -106.503925 116 34677ft 513kts
16-Jan-19 19:58 40.600237 -106.365613 115 33874ft 518kts
16-Jan-19 20:00 40.519394 -106.171011 116 32685ft 521kts
16-Jan-19 20:00 40.461040 -106.030979 114 30953ft 528kts
16-Jan-19 20:02 40.417274 -105.820170 97 25987ft 497kts
16-Jan-19 20:03 40.390601 -105.651432 98 22915ft 457kts
16-Jan-19 20:03 40.369775 -105.521134 99 20581ft 427kts
16-Jan-19 20:04 40.347657 -105.376412 97 18591ft 370kts
16-Jan-19 20:05 40.330515 -105.249895 98 17227ft 346kts
16-Jan-19 20:06 40.313748 -105.127446 98 15475ft 339kts
16-Jan-19 20:07 40.297077 -105.007109 99 13765ft 332kts
16-Jan-19 20:08 40.281055 -104.893522 99 12353ft 320kts
16-Jan-19 20:09 40.251165 -104.790726 135 11016ft 286kts
16-Jan-19 20:10 40.187513 -104.741515 166 9929ft 274kts
16-Jan-19 20:11 40.117812 -104.716174 165 8764ft 242kts
16-Jan-19 20:12 40.055126 -104.693574 165 7920ft 235kts
16-Jan-19 20:13 39.993382 -104.675791 185 7349ft 233kts
16-Jan-19 20:14 39.935666 -104.686180 181 6237ft 177kts
16-Jan-19 20:15 39.893853 -104.686793 181 5455ft 148kts
16-Jan-19 20:16 39.873226 -104.686414 156 5442ft 10kts
16-Jan-19 20:17 39.872584 -104.685988 149 5442ft 0kts
16-Jan-19 20:18 39.871350 -104.685110 159 5442ft 11kts
16-Jan-19 20:19 39.868754 -104.684978 184 5442ft 8kts

Navigation Log

Ident Type
Flight plan parsing failed, navigation log unavailable